createdAt,value
2022-11-04T00:02:08.938Z,13.10
2022-11-04T00:04:37.327Z,13.10
2022-11-04T00:07:26.996Z,13.10
2022-11-04T00:09:55.143Z,13.10
2022-11-04T00:12:25.120Z,13.10
2022-11-04T00:14:53.513Z,13.10
2022-11-04T00:17:22.332Z,13.00
2022-11-04T00:20:09.823Z,13.00
2022-11-04T00:22:57.997Z,13.10
2022-11-04T00:25:44.020Z,13.00
2022-11-04T00:28:31.634Z,13.10
2022-11-04T00:31:22.161Z,13.00
2022-11-04T00:33:50.902Z,13.00
2022-11-04T00:36:19.129Z,13.00
2022-11-04T00:38:48.903Z,13.00
2022-11-04T00:41:30.493Z,13.00
2022-11-04T00:44:00.729Z,13.00
2022-11-04T00:46:30.145Z,13.00
2022-11-04T00:48:58.511Z,13.00
2022-11-04T00:51:27.445Z,13.00
2022-11-04T00:53:58.337Z,13.00
2022-11-04T00:56:26.810Z,13.00
2022-11-04T00:58:55.151Z,13.00
2022-11-04T01:01:23.682Z,13.00
2022-11-04T01:03:54.954Z,13.00
2022-11-04T01:06:24.893Z,13.00
2022-11-04T01:08:59.299Z,13.00
2022-11-04T01:11:29.623Z,13.00
2022-11-04T01:13:58.420Z,13.00
2022-11-04T01:19:00.697Z,13.10
2022-11-04T01:21:28.936Z,13.10
2022-11-04T01:23:58.676Z,13.10
2022-11-04T01:26:28.373Z,13.10
2022-11-04T01:28:57.801Z,13.00
2022-11-04T01:31:28.134Z,13.00
2022-11-04T01:33:56.936Z,13.00
2022-11-04T01:36:25.744Z,12.90
2022-11-04T01:38:55.718Z,12.80
2022-11-04T01:41:29.744Z,12.80
2022-11-04T01:43:59.747Z,12.90
2022-11-04T01:46:36.757Z,12.90
2022-11-04T01:49:18.617Z,12.90
2022-11-04T01:51:49.247Z,12.90
2022-11-04T01:54:18.178Z,12.90
2022-11-04T01:56:49.914Z,12.90
2022-11-04T01:59:22.674Z,12.80
2022-11-04T02:01:51.079Z,12.80
2022-11-04T02:04:30.227Z,12.70
2022-11-04T02:07:01.079Z,12.70
2022-11-04T02:09:31.902Z,12.60
2022-11-04T02:12:18.994Z,12.70
2022-11-04T02:14:49.766Z,12.70
2022-11-04T02:17:32.822Z,12.70
2022-11-04T02:20:25.074Z,12.70
2022-11-04T02:23:32.461Z,12.70
2022-11-04T02:26:57.484Z,12.70
2022-11-04T02:29:36.179Z,12.60
2022-11-04T02:32:16.336Z,12.60
2022-11-04T02:34:53.994Z,12.60
2022-11-04T02:37:32.785Z,12.60
2022-11-04T02:40:10.141Z,12.60
2022-11-04T02:42:46.485Z,12.50
2022-11-04T02:45:22.566Z,12.40
2022-11-04T02:47:55.871Z,12.40
2022-11-04T02:50:31.605Z,12.30
2022-11-04T02:53:04.260Z,12.30
2022-11-04T02:55:38.170Z,12.30
2022-11-04T02:58:10.579Z,12.30
2022-11-04T03:00:42.852Z,12.30
2022-11-04T03:03:14.556Z,12.20
2022-11-04T03:05:47.413Z,12.20
2022-11-04T03:08:21.531Z,12.10
2022-11-04T03:10:54.670Z,12.10
2022-11-04T03:13:29.305Z,12.20
2022-11-04T03:16:02.960Z,12.20
2022-11-04T03:18:38.113Z,12.20
2022-11-04T03:21:11.311Z,12.20
2022-11-04T03:23:39.970Z,12.20
2022-11-04T03:26:18.650Z,12.20
2022-11-04T03:28:55.048Z,12.30
2022-11-04T03:31:29.627Z,12.30
2022-11-04T03:33:59.754Z,12.30
2022-11-04T03:36:30.333Z,12.30
2022-11-04T03:38:58.692Z,12.30
2022-11-04T03:41:34.604Z,12.30
2022-11-04T03:44:02.990Z,12.30
2022-11-04T03:46:32.692Z,12.20
2022-11-04T03:49:02.154Z,12.20
2022-11-04T03:51:30.472Z,12.30
2022-11-04T03:53:59.842Z,12.30
2022-11-04T03:56:54.193Z,12.20
2022-11-04T03:59:44.409Z,12.20
2022-11-04T04:02:18.926Z,12.20
2022-11-04T04:04:55.857Z,12.20
2022-11-04T04:07:34.538Z,12.20
2022-11-04T04:10:28.023Z,12.20
2022-11-04T04:12:59.882Z,12.30
2022-11-04T04:15:32.165Z,12.20
2022-11-04T04:18:04.975Z,12.30
2022-11-04T04:20:35.262Z,12.30
2022-11-04T04:23:28.653Z,12.40
2022-11-04T04:26:19.250Z,12.40
2022-11-04T04:28:48.137Z,12.40
2022-11-04T04:31:39.301Z,12.50
2022-11-04T04:34:09.980Z,12.40
2022-11-04T04:36:47.683Z,12.50
2022-11-04T04:39:38.269Z,12.50
2022-11-04T04:42:26.464Z,12.50
2022-11-04T04:45:04.588Z,12.40
2022-11-04T04:47:45.535Z,12.40
2022-11-04T04:50:17.743Z,12.40
2022-11-04T04:52:49.011Z,12.50
2022-11-04T04:55:17.900Z,12.60
2022-11-04T04:57:46.342Z,12.50
2022-11-04T05:00:17.089Z,12.40
2022-11-04T05:02:45.805Z,12.40
2022-11-04T05:07:48.939Z,12.60
2022-11-04T05:10:18.784Z,12.60
2022-11-04T05:13:04.780Z,12.50
2022-11-04T05:15:33.404Z,12.50
2022-11-04T05:18:03.320Z,12.60
2022-11-04T05:20:34.462Z,12.60
2022-11-04T05:23:02.780Z,12.70
2022-11-04T05:25:31.288Z,12.70
2022-11-04T05:28:01.576Z,12.70
2022-11-04T05:30:30.569Z,12.70
2022-11-04T05:33:03.386Z,12.70
2022-11-04T05:35:35.250Z,12.70
2022-11-04T05:38:03.446Z,12.60
2022-11-04T05:40:31.812Z,12.60
2022-11-04T05:43:00.814Z,12.60
2022-11-04T05:45:29.770Z,12.60
2022-11-04T05:48:01.913Z,12.50
2022-11-04T05:50:31.531Z,12.60
2022-11-04T05:53:01.967Z,12.60
2022-11-04T05:55:30.403Z,12.60
2022-11-04T05:57:59.437Z,12.60
2022-11-04T06:00:30.809Z,12.60
2022-11-04T06:02:59.114Z,12.60
2022-11-04T06:05:28.534Z,12.60
2022-11-04T06:07:57.588Z,12.60
2022-11-04T06:10:27.466Z,12.60
2022-11-04T06:12:55.717Z,12.60
2022-11-04T06:15:23.901Z,12.60
2022-11-04T06:17:52.175Z,12.60
2022-11-04T06:20:20.467Z,12.50
2022-11-04T06:22:48.658Z,12.50
2022-11-04T06:25:16.988Z,12.30
2022-11-04T06:27:46.659Z,12.20
2022-11-04T06:30:15.160Z,12.10
2022-11-04T06:32:43.392Z,11.80
2022-11-04T06:35:11.647Z,11.70
2022-11-04T06:37:39.853Z,11.60
2022-11-04T06:40:09.457Z,11.60
2022-11-04T06:42:37.711Z,11.50
2022-11-04T06:45:08.375Z,11.50
2022-11-04T06:47:36.572Z,11.40
2022-11-04T06:50:05.301Z,11.40
2022-11-04T06:52:38.034Z,11.30
2022-11-04T06:55:10.844Z,11.10
2022-11-04T06:57:39.200Z,10.90
2022-11-04T07:00:10.391Z,10.90
2022-11-04T07:02:39.227Z,10.70
2022-11-04T07:05:08.194Z,10.80
2022-11-04T07:07:36.519Z,10.70
2022-11-04T07:10:04.912Z,10.60
2022-11-04T07:12:33.232Z,10.60
2022-11-04T07:15:01.404Z,10.50
2022-11-04T07:17:30.819Z,10.50
2022-11-04T07:19:58.886Z,10.50
2022-11-04T07:22:26.850Z,10.40
2022-11-04T07:24:54.832Z,10.40
2022-11-04T07:27:22.853Z,10.40
2022-11-04T07:29:51.028Z,10.40
2022-11-04T07:32:18.971Z,10.50
2022-11-04T07:34:48.294Z,10.50
2022-11-04T07:37:16.246Z,10.50
2022-11-04T07:39:44.185Z,10.50
2022-11-04T07:42:12.429Z,10.50
2022-11-04T07:44:40.788Z,10.60
2022-11-04T07:47:09.010Z,10.50
2022-11-04T07:49:37.410Z,10.50
2022-11-04T07:52:07.280Z,10.50
2022-11-04T07:54:35.662Z,10.50
2022-11-04T07:57:03.930Z,10.60
2022-11-04T07:59:32.303Z,10.60
2022-11-04T08:02:00.929Z,10.50
2022-11-04T08:04:29.594Z,10.60
2022-11-04T08:06:57.798Z,10.50
2022-11-04T08:09:27.817Z,10.50
2022-11-04T08:11:56.002Z,10.60
2022-11-04T08:14:23.951Z,10.80
2022-11-04T08:16:52.264Z,11.00
2022-11-04T08:19:20.263Z,11.10
2022-11-04T08:21:48.439Z,11.20
2022-11-04T08:24:16.639Z,11.30
2022-11-04T08:26:46.335Z,11.20
2022-11-04T08:29:14.519Z,11.30
2022-11-04T08:31:42.610Z,11.30
2022-11-04T08:34:10.618Z,11.30
2022-11-04T08:36:40.846Z,11.30
2022-11-04T08:39:11.311Z,11.30
2022-11-04T08:41:41.376Z,11.20
2022-11-04T08:44:11.814Z,11.20
2022-11-04T08:46:41.729Z,11.20
2022-11-04T08:49:12.120Z,11.20
2022-11-04T08:51:47.134Z,11.10
2022-11-04T08:54:15.469Z,11.00
2022-11-04T08:56:43.899Z,11.10
2022-11-04T08:59:15.053Z,11.10
2022-11-04T09:01:44.532Z,11.00
2022-11-04T09:04:14.139Z,11.10
2022-11-04T09:06:46.224Z,11.10
2022-11-04T09:09:16.860Z,11.10
2022-11-04T09:11:46.512Z,11.20
2022-11-04T09:14:18.999Z,11.20
2022-11-04T09:16:47.204Z,11.20
2022-11-04T09:19:15.489Z,11.20
2022-11-04T09:21:43.759Z,11.10
2022-11-04T09:24:12.462Z,11.10
2022-11-04T09:26:42.770Z,11.10
2022-11-04T09:29:10.984Z,11.00
2022-11-04T09:31:40.669Z,11.00
2022-11-04T09:34:09.509Z,11.00
2022-11-04T09:36:37.697Z,11.00
2022-11-04T09:39:06.804Z,11.00
2022-11-04T09:41:52.752Z,11.00
2022-11-04T09:44:28.300Z,11.00
2022-11-04T09:47:02.134Z,10.90
2022-11-04T09:49:35.533Z,10.90
2022-11-04T09:52:08.671Z,10.90
2022-11-04T09:54:47.289Z,10.80
2022-11-04T09:57:19.503Z,10.80
2022-11-04T09:59:48.339Z,10.90
2022-11-04T10:02:30.866Z,10.90
2022-11-04T10:05:08.367Z,10.80
2022-11-04T10:07:48.521Z,10.80
2022-11-04T10:10:22.877Z,10.80
2022-11-04T10:13:05.485Z,10.80
2022-11-04T10:15:58.151Z,10.80
2022-11-04T10:18:45.808Z,10.70
2022-11-04T10:21:24.914Z,10.70
2022-11-04T10:24:06.027Z,10.70
2022-11-04T10:26:43.149Z,10.70
2022-11-04T10:29:15.861Z,10.80
2022-11-04T10:31:46.872Z,10.80
2022-11-04T10:34:27.781Z,10.80
2022-11-04T10:36:57.138Z,10.90
2022-11-04T10:39:29.930Z,10.90
2022-11-04T10:41:59.326Z,10.90
2022-11-04T10:44:29.598Z,10.90
2022-11-04T10:47:10.347Z,10.80
2022-11-04T10:50:27.119Z,10.80
2022-11-04T10:52:48.003Z,10.80
2022-11-04T10:55:30.092Z,10.80
2022-11-04T10:57:59.156Z,10.90
2022-11-04T11:00:38.909Z,11.00
2022-11-04T11:03:25.217Z,11.00
2022-11-04T11:05:55.979Z,11.00
2022-11-04T11:08:31.027Z,11.00
2022-11-04T11:11:01.425Z,10.90
2022-11-04T11:13:35.682Z,11.00
2022-11-04T11:16:13.400Z,11.00
2022-11-04T11:18:42.133Z,11.10
2022-11-04T11:21:21.282Z,11.10
2022-11-04T11:23:51.579Z,11.00
2022-11-04T11:26:21.803Z,11.00
2022-11-04T11:28:58.373Z,11.00
2022-11-04T11:31:27.506Z,11.00
2022-11-04T11:33:59.034Z,11.00
2022-11-04T11:36:31.255Z,10.90
2022-11-04T11:39:04.147Z,11.00
2022-11-04T11:41:34.217Z,10.90
2022-11-04T11:44:18.683Z,11.00
2022-11-04T11:46:54.626Z,10.80
2022-11-04T11:49:29.120Z,10.90
2022-11-04T11:52:21.691Z,11.00
2022-11-04T11:54:54.234Z,11.10
2022-11-04T11:57:34.470Z,11.10
2022-11-04T12:03:02.709Z,10.80
2022-11-04T12:11:50.819Z,10.90
2022-11-04T12:14:23.424Z,10.80
2022-11-04T12:16:59.619Z,10.90
2022-11-04T12:19:40.793Z,11.10
2022-11-04T12:22:17.442Z,11.20
2022-11-04T12:24:56.348Z,11.20
2022-11-04T12:27:32.107Z,11.30
2022-11-04T12:30:07.639Z,11.30
2022-11-04T12:32:49.308Z,11.40
2022-11-04T12:35:34.651Z,11.40
2022-11-04T12:38:25.191Z,11.50
2022-11-04T12:41:34.237Z,11.50
2022-11-04T12:44:03.785Z,11.50
2022-11-04T12:46:39.127Z,11.50
2022-11-04T12:49:33.527Z,11.40
2022-11-04T12:52:10.611Z,11.40
2022-11-04T12:54:49.357Z,11.10
2022-11-04T12:57:24.869Z,11.00
2022-11-04T13:00:07.267Z,10.90
2022-11-04T13:02:42.834Z,10.80
2022-11-04T13:05:27.632Z,10.80
2022-11-04T13:08:01.613Z,11.00
2022-11-04T13:10:39.765Z,11.00
2022-11-04T13:13:11.175Z,10.80
2022-11-04T13:15:46.492Z,10.80
2022-11-04T13:18:18.996Z,11.00
2022-11-04T13:20:53.161Z,11.00
2022-11-04T13:23:26.691Z,11.10
2022-11-04T13:25:56.224Z,11.10
2022-11-04T13:28:25.949Z,11.00
2022-11-04T13:31:05.244Z,11.00
2022-11-04T13:33:44.383Z,10.90
2022-11-04T13:36:23.958Z,10.80
2022-11-04T13:38:56.268Z,10.60
2022-11-04T13:41:50.065Z,10.70
2022-11-04T13:44:26.642Z,10.60
2022-11-04T13:46:59.423Z,10.50
2022-11-04T13:49:32.602Z,10.50
2022-11-04T13:52:08.215Z,10.60
2022-11-04T13:54:41.810Z,10.70
2022-11-04T13:57:16.541Z,10.80
2022-11-04T14:00:23.714Z,10.90
2022-11-04T14:02:52.654Z,10.80
2022-11-04T14:05:56.529Z,10.70
2022-11-04T14:08:24.702Z,10.50
2022-11-04T14:11:21.984Z,10.40
2022-11-04T14:14:18.114Z,10.40
2022-11-04T14:16:47.560Z,10.50
2022-11-04T14:19:58.537Z,10.50
2022-11-04T14:22:32.624Z,10.60
2022-11-04T14:25:02.653Z,10.60
2022-11-04T14:27:40.185Z,10.70
2022-11-04T14:30:26.740Z,10.70
2022-11-04T14:33:00.096Z,10.70
2022-11-04T14:35:30.466Z,10.60
2022-11-04T14:38:03.223Z,10.70
2022-11-04T14:40:48.502Z,10.70
2022-11-04T14:43:31.067Z,10.80
2022-11-04T14:46:01.439Z,10.80
2022-11-04T14:48:32.216Z,10.80
2022-11-04T14:51:00.478Z,10.60
2022-11-04T14:53:33.568Z,10.60
2022-11-04T14:56:06.687Z,10.70
2022-11-04T14:58:34.703Z,10.80
2022-11-04T15:01:05.298Z,10.90
2022-11-04T15:06:40.778Z,11.00
2022-11-04T15:09:22.779Z,11.00
2022-11-04T15:12:08.104Z,10.90
2022-11-04T15:14:38.194Z,11.00
2022-11-04T15:17:06.189Z,11.00
2022-11-04T15:19:37.345Z,10.90
2022-11-04T15:22:08.331Z,10.90
2022-11-04T15:24:36.833Z,10.90
2022-11-04T15:27:07.298Z,10.90
2022-11-04T15:29:35.293Z,10.80
2022-11-04T15:32:05.633Z,10.80
2022-11-04T15:34:36.779Z,10.70
2022-11-04T15:37:06.501Z,10.70
2022-11-04T15:39:40.538Z,10.50
2022-11-04T15:42:33.100Z,10.20
2022-11-04T15:45:01.108Z,10.30
2022-11-04T15:47:29.560Z,10.10
2022-11-04T15:50:16.874Z,10.30
2022-11-04T15:52:52.106Z,10.40
2022-11-04T15:55:24.438Z,10.40
2022-11-04T15:57:53.004Z,10.40
2022-11-04T16:00:25.859Z,10.40
2022-11-04T16:02:57.302Z,10.00
2022-11-04T16:05:28.577Z,9.90
2022-11-04T16:08:18.494Z,9.80
2022-11-04T16:11:10.572Z,10.00
2022-11-04T16:13:38.836Z,10.10
2022-11-04T16:16:16.573Z,10.10
2022-11-04T16:18:46.376Z,10.10
2022-11-04T16:21:24.864Z,9.80
2022-11-04T16:23:56.521Z,9.60
2022-11-04T16:26:30.007Z,9.50
2022-11-04T16:29:02.638Z,9.40
2022-11-04T16:31:35.279Z,9.50
2022-11-04T16:34:03.722Z,9.70
2022-11-04T16:36:35.920Z,9.60
2022-11-04T16:39:08.538Z,9.70
2022-11-04T16:41:39.276Z,9.90
2022-11-04T16:44:16.731Z,10.00
2022-11-04T16:46:45.475Z,10.10
2022-11-04T16:49:16.561Z,9.90
2022-11-04T16:51:46.279Z,9.70
2022-11-04T16:54:14.295Z,9.90
2022-11-04T16:56:42.252Z,10.00
2022-11-04T16:59:11.596Z,10.00
2022-11-04T17:01:40.584Z,10.00
2022-11-04T17:04:09.123Z,10.00
2022-11-04T17:06:37.792Z,10.00
2022-11-04T17:09:18.156Z,9.90
2022-11-04T17:11:46.146Z,9.80
2022-11-04T17:14:14.078Z,9.40
2022-11-04T17:16:44.264Z,9.30
2022-11-04T17:19:16.840Z,9.30
2022-11-04T17:21:46.644Z,9.30
2022-11-04T17:24:16.055Z,9.30
2022-11-04T17:26:44.034Z,9.40
2022-11-04T17:29:17.067Z,9.60
2022-11-04T17:31:45.503Z,9.70
2022-11-04T17:34:13.437Z,9.60
2022-11-04T17:36:41.484Z,9.30
2022-11-04T17:39:11.544Z,9.20
2022-11-04T17:41:58.533Z,9.10
2022-11-04T17:44:26.508Z,9.20
2022-11-04T17:46:54.571Z,9.30
2022-11-04T17:49:26.699Z,9.50
2022-11-04T17:51:56.887Z,9.50
2022-11-04T17:54:26.081Z,9.60
2022-11-04T17:56:55.810Z,9.30
2022-11-04T17:59:25.056Z,9.10
2022-11-04T18:01:53.377Z,9.00
2022-11-04T18:04:23.244Z,9.20
2022-11-04T18:06:52.091Z,9.30
2022-11-04T18:09:20.446Z,9.40
2022-11-04T18:12:06.536Z,9.50
2022-11-04T18:14:35.897Z,9.50
2022-11-04T18:17:04.697Z,9.60
2022-11-04T18:19:32.810Z,9.60
2022-11-04T18:22:00.752Z,9.50
2022-11-04T18:24:29.050Z,9.30
2022-11-04T18:26:59.524Z,9.10
2022-11-04T18:29:28.111Z,8.90
2022-11-04T18:31:57.911Z,8.70
2022-11-04T18:34:25.952Z,8.30
2022-11-04T18:36:54.136Z,8.30
2022-11-04T18:39:23.100Z,8.30
2022-11-04T18:41:51.063Z,8.30
2022-11-04T18:44:21.189Z,8.50
2022-11-04T18:46:49.851Z,8.80
2022-11-04T18:49:20.794Z,8.90
2022-11-04T18:51:48.863Z,8.80
2022-11-04T18:54:19.705Z,8.70
2022-11-04T18:56:47.924Z,8.80
2022-11-04T18:59:16.844Z,8.50
2022-11-04T19:01:45.960Z,8.60
2022-11-04T19:04:14.950Z,8.40
2022-11-04T19:06:45.414Z,8.30
2022-11-04T19:12:20.807Z,8.10
2022-11-04T19:14:49.187Z,8.10
2022-11-04T19:17:17.230Z,8.00
2022-11-04T19:19:45.409Z,8.10
2022-11-04T19:22:14.740Z,8.10
2022-11-04T19:24:42.742Z,8.20
2022-11-04T19:27:10.708Z,8.30
2022-11-04T19:29:38.787Z,8.40
2022-11-04T19:32:12.846Z,8.60
2022-11-04T19:34:42.211Z,8.70
2022-11-04T19:37:10.632Z,8.70
2022-11-04T19:39:40.267Z,8.80
2022-11-04T19:42:25.857Z,8.70
2022-11-04T19:44:53.860Z,8.30
2022-11-04T19:47:21.802Z,7.80
2022-11-04T19:49:49.863Z,7.70
2022-11-04T19:52:18.672Z,7.70
2022-11-04T19:54:48.345Z,7.70
2022-11-04T19:57:16.644Z,7.70
2022-11-04T19:59:44.816Z,7.70
2022-11-04T20:02:15.064Z,8.00
2022-11-04T20:04:43.390Z,8.10
2022-11-04T20:07:11.355Z,8.20
2022-11-04T20:09:39.578Z,8.20
2022-11-04T20:12:26.622Z,7.90
2022-11-04T20:14:56.187Z,7.90
2022-11-04T20:17:24.794Z,7.80
2022-11-04T20:19:52.930Z,8.00
2022-11-04T20:22:20.917Z,7.90
2022-11-04T20:24:48.979Z,7.80
2022-11-04T20:27:18.368Z,8.00
2022-11-04T20:29:48.674Z,8.10
2022-11-04T20:32:16.684Z,8.30
2022-11-04T20:34:45.086Z,8.10
2022-11-04T20:37:13.063Z,7.70
2022-11-04T20:39:41.150Z,7.60
2022-11-04T20:42:09.476Z,7.50
2022-11-04T20:44:38.953Z,7.40
2022-11-04T20:47:06.937Z,7.40
2022-11-04T20:49:35.019Z,7.30
2022-11-04T20:52:03.994Z,7.20
2022-11-04T20:54:32.073Z,7.40
2022-11-04T20:57:00.139Z,7.60
2022-11-04T20:59:28.612Z,7.60
2022-11-04T21:02:00.129Z,7.50
2022-11-04T21:04:34.787Z,7.50
2022-11-04T21:07:03.873Z,7.40
2022-11-04T21:09:32.746Z,7.10
2022-11-04T21:12:00.734Z,7.20
2022-11-04T21:14:31.852Z,7.30
2022-11-04T21:17:01.371Z,7.30
2022-11-04T21:19:29.474Z,7.40
2022-11-04T21:21:57.508Z,7.70
2022-11-04T21:24:25.734Z,7.80
2022-11-04T21:26:53.770Z,7.80
2022-11-04T21:29:21.822Z,7.70
2022-11-04T21:31:50.043Z,7.40
2022-11-04T21:34:19.434Z,7.20
2022-11-04T21:36:50.876Z,7.20
2022-11-04T21:39:18.952Z,7.20
2022-11-04T21:41:46.911Z,7.20
2022-11-04T21:44:15.316Z,7.10
2022-11-04T21:46:43.768Z,7.00
2022-11-04T21:49:17.058Z,7.00
2022-11-04T21:51:46.530Z,6.90
2022-11-04T21:54:14.579Z,6.90
2022-11-04T21:56:42.586Z,6.80
2022-11-04T21:59:17.966Z,6.70
2022-11-04T22:01:46.996Z,6.40
2022-11-04T22:04:15.086Z,6.50
2022-11-04T22:06:43.354Z,6.40
2022-11-04T22:09:13.191Z,6.60
2022-11-04T22:11:41.203Z,6.80
2022-11-04T22:14:09.541Z,7.10
2022-11-04T22:16:39.559Z,7.10
2022-11-04T22:19:10.282Z,7.10
2022-11-04T22:21:40.896Z,7.00
2022-11-04T22:24:13.674Z,6.80
2022-11-04T22:26:41.984Z,6.80
2022-11-04T22:29:10.216Z,6.80
2022-11-04T22:31:40.511Z,6.80
2022-11-04T22:34:09.769Z,6.90
2022-11-04T22:36:38.162Z,6.90
2022-11-04T22:39:10.531Z,7.10
2022-11-04T22:41:43.811Z,7.20
2022-11-04T22:44:11.999Z,7.40
2022-11-04T22:46:40.063Z,7.60
2022-11-04T22:49:08.792Z,7.20
2022-11-04T22:51:36.768Z,7.10
2022-11-04T22:54:08.311Z,7.20
2022-11-04T22:56:37.033Z,7.00
2022-11-04T22:59:09.896Z,6.90
2022-11-04T23:01:41.739Z,6.90
2022-11-04T23:04:12.202Z,7.00
2022-11-04T23:06:40.415Z,7.30
2022-11-04T23:09:08.489Z,7.40
2022-11-04T23:11:53.883Z,7.60
2022-11-04T23:14:49.707Z,7.70
2022-11-04T23:17:37.725Z,7.80
2022-11-04T23:20:10.176Z,7.80
2022-11-04T23:22:55.738Z,7.70
2022-11-04T23:25:24.340Z,7.30
2022-11-04T23:28:12.023Z,7.30
2022-11-04T23:30:44.056Z,7.20
2022-11-04T23:33:14.453Z,7.30
2022-11-04T23:36:02.677Z,7.30
2022-11-04T23:38:31.356Z,7.30
2022-11-04T23:41:19.453Z,7.30
2022-11-04T23:43:47.960Z,7.50
2022-11-04T23:46:41.191Z,7.40
2022-11-04T23:49:29.497Z,7.40
2022-11-04T23:52:15.029Z,7.30
2022-11-04T23:55:00.791Z,7.20
2022-11-04T23:57:46.483Z,7.20
